Time;durP1;ratioP1;P1;durP2;ratioP2;P2;SDS_P1;SDS_P2;PMS_P1;PMS_P2;Temp;Humidity;BMP_temperature;BMP_pressure;BME280_temperature;BME280_humidity;BME280_pressure;Samples;Min_cycle;Max_cycle;Signal;HPM_P1;HPM_P2
2024/02/08 00:01:06;;;;;;;32.95;12.13;;;1.60;99.90;;;;;;4937080;29;20039;-75
2024/02/08 00:03:31;;;;;;;41.17;12.73;;;1.60;99.90;;;;;;4938548;29;20030;-76
2024/02/08 00:05:57;;;;;;;37.88;13.98;;;1.60;99.90;;;;;;4952748;28;20130;-77
2024/02/08 00:08:22;;;;;;;35.50;13.23;;;1.50;99.90;;;;;;4954775;28;20027;-75
2024/02/08 00:10:48;;;;;;;36.65;12.45;;;1.40;99.90;;;;;;4936697;29;20058;-75
2024/02/08 00:13:13;;;;;;;38.25;13.32;;;1.40;99.90;;;;;;4937687;29;20035;-76
2024/02/08 00:15:40;;;;;;;32.97;12.23;;;1.40;99.90;;;;;;4937633;29;20060;-75
2024/02/08 00:18:07;;;;;;;34.15;12.23;;;1.30;99.90;;;;;;4936788;29;20039;-76
2024/02/08 00:20:33;;;;;;;44.63;13.15;;;1.30;99.90;;;;;;4954882;28;20023;-75
2024/02/08 00:22:59;;;;;;;38.10;12.68;;;1.30;99.90;;;;;;4954396;28;20020;-75
2024/02/08 00:25:25;;;;;;;38.83;11.60;;;1.20;99.90;;;;;;4936937;29;20048;-76
2024/02/08 00:27:52;;;;;;;38.05;11.65;;;1.20;99.90;;;;;;4954105;28;20034;-76
2024/02/08 00:30:18;;;;;;;37.13;11.70;;;1.20;99.90;;;;;;4954975;29;20024;-75
2024/02/08 00:32:48;;;;;;;36.05;11.18;;;1.20;99.90;;;;;;4954257;29;20028;-76
2024/02/08 00:35:18;;;;;;;24.80;10.20;;;1.20;99.90;;;;;;4954641;28;20086;-75
2024/02/08 00:37:47;;;;;;;27.75;9.88;;;1.20;99.90;;;;;;4937528;28;20397;-75
2024/02/08 00:40:17;;;;;;;29.98;10.10;;;1.20;99.90;;;;;;4936895;29;20027;-76
2024/02/08 00:42:45;;;;;;;36.15;10.40;;;1.20;99.90;;;;;;4953720;28;20036;-76
2024/02/08 00:45:11;;;;;;;32.42;9.90;;;1.20;99.90;;;;;;4955300;29;20059;-76
2024/02/08 00:47:37;;;;;;;26.50;8.48;;;1.10;99.90;;;;;;4955731;28;20046;-76
2024/02/08 00:50:05;;;;;;;31.90;9.98;;;1.10;99.90;;;;;;4957266;28;20066;-76
2024/02/08 00:52:33;;;;;;;25.73;9.00;;;1.10;99.90;;;;;;4957037;28;20023;-76
2024/02/08 00:54:59;;;;;;;33.20;9.57;;;1.00;99.90;;;;;;4957579;29;20035;-76
2024/02/08 00:57:32;;;;;;;26.35;8.82;;;1.00;99.90;;;;;;4956536;28;20023;-75
2024/02/08 00:59:58;;;;;;;24.83;8.88;;;1.00;99.90;;;;;;4938850;29;20062;-76
2024/02/08 01:02:24;;;;;;;30.10;9.65;;;0.90;99.90;;;;;;4958268;28;20086;-76
2024/02/08 01:04:49;;;;;;;31.85;8.70;;;0.90;99.90;;;;;;4940567;29;20044;-76
2024/02/08 01:07:15;;;;;;;30.15;8.25;;;0.90;99.90;;;;;;4940183;28;20043;-75
2024/02/08 01:09:41;;;;;;;27.85;8.07;;;0.90;99.90;;;;;;4957636;29;20052;-75
2024/02/08 01:12:07;;;;;;;27.30;8.13;;;0.90;99.90;;;;;;4957634;28;20038;-75
2024/02/08 01:14:32;;;;;;;23.60;8.52;;;1.00;99.90;;;;;;4940417;29;20087;-75
2024/02/08 01:16:58;;;;;;;32.88;8.75;;;1.00;99.90;;;;;;4940409;29;20035;-75
2024/02/08 01:19:25;;;;;;;31.80;9.07;;;1.10;99.90;;;;;;4957497;28;20070;-76
2024/02/08 01:21:51;;;;;;;34.25;9.48;;;1.20;99.90;;;;;;4957194;28;20024;-75
2024/02/08 01:24:19;;;;;;;30.83;8.65;;;1.20;99.90;;;;;;4957667;28;20067;-74
2024/02/08 01:26:45;;;;;;;23.70;8.23;;;1.20;99.90;;;;;;4957447;28;20137;-77
2024/02/08 01:29:11;;;;;;;26.23;8.32;;;1.20;99.90;;;;;;4957080;28;20035;-75
2024/02/08 01:31:37;;;;;;;20.33;8.30;;;1.10;99.90;;;;;;4957369;28;20031;-75
2024/02/08 01:34:05;;;;;;;20.95;7.78;;;1.10;99.90;;;;;;4954758;28;20031;-75
2024/02/08 01:36:31;;;;;;;30.85;8.50;;;1.10;99.90;;;;;;4957652;28;20079;-75
2024/02/08 01:38:58;;;;;;;28.75;8.18;;;1.10;99.90;;;;;;4938814;29;20043;-74
2024/02/08 01:41:24;;;;;;;21.38;7.50;;;1.10;99.90;;;;;;4956691;28;20023;-75
2024/02/08 01:43:51;;;;;;;18.80;7.43;;;1.10;99.90;;;;;;4957009;28;20028;-76
2024/02/08 01:46:17;;;;;;;25.20;7.65;;;1.10;99.90;;;;;;4939806;28;20047;-76
2024/02/08 01:48:44;;;;;;;26.52;7.45;;;1.10;99.90;;;;;;4938809;29;20028;-75
2024/02/08 01:51:12;;;;;;;26.33;7.78;;;1.10;99.90;;;;;;4957133;28;20031;-75
2024/02/08 01:53:41;;;;;;;23.75;7.40;;;1.10;99.90;;;;;;4955750;28;20039;-75
2024/02/08 01:56:11;;;;;;;27.15;6.75;;;1.20;99.90;;;;;;4953768;28;20054;-76
2024/02/08 01:58:41;;;;;;;19.38;6.68;;;1.20;99.90;;;;;;4939903;28;20024;-75
2024/02/08 02:01:08;;;;;;;23.40;6.50;;;1.30;99.90;;;;;;4939393;29;20028;-75
2024/02/08 02:03:35;;;;;;;27.02;6.95;;;1.30;99.90;;;;;;4955864;29;20047;-74
2024/02/08 02:06:01;;;;;;;21.27;6.20;;;1.30;99.90;;;;;;4956239;28;20028;-75
2024/02/08 02:08:28;;;;;;;28.88;6.68;;;1.30;99.90;;;;;;4956681;28;20031;-75
2024/02/08 02:11:05;;;;;;;21.08;6.32;;;1.30;99.90;;;;;;4939138;29;20039;-75
2024/02/08 02:13:34;;;;;;;19.75;6.18;;;1.40;99.90;;;;;;4956679;28;20482;-75
2024/02/08 02:15:59;;;;;;;22.45;6.25;;;1.40;99.90;;;;;;4955682;29;20032;-75
2024/02/08 02:18:25;;;;;;;28.25;6.55;;;1.50;99.90;;;;;;4954194;28;20046;-75
2024/02/08 02:20:54;;;;;;;24.33;6.10;;;1.50;99.90;;;;;;4957057;28;20035;-75
2024/02/08 02:23:19;;;;;;;17.70;5.22;;;1.60;99.90;;;;;;4956776;28;20051;-75
2024/02/08 02:25:48;;;;;;;23.67;6.03;;;1.60;99.90;;;;;;4956196;28;20047;-75
2024/02/08 02:28:16;;;;;;;22.95;5.95;;;1.60;99.90;;;;;;4956340;28;20038;-76
2024/02/08 02:30:44;;;;;;;21.60;5.65;;;1.70;99.90;;;;;;4955090;28;20031;-76
2024/02/08 02:33:13;;;;;;;22.77;6.07;;;1.70;99.90;;;;;;4938724;28;20114;-75
2024/02/08 02:35:39;;;;;;;16.92;5.60;;;1.70;99.90;;;;;;4937139;28;20028;-75
2024/02/08 02:38:12;;;;;;;15.40;5.43;;;1.70;99.90;;;;;;4936837;28;20060;-76
2024/02/08 02:40:41;;;;;;;20.45;6.10;;;1.80;99.90;;;;;;4938580;29;20535;-75
2024/02/08 02:43:09;;;;;;;19.50;5.38;;;1.80;99.90;;;;;;4938675;29;20039;-75
2024/02/08 02:45:38;;;;;;;13.30;5.25;;;1.80;99.90;;;;;;4955898;28;20031;-75
2024/02/08 02:48:04;;;;;;;16.85;5.60;;;1.80;99.90;;;;;;4938244;29;20027;-76
2024/02/08 02:50:32;;;;;;;21.50;6.22;;;1.80;99.90;;;;;;4938286;29;20042;-75
2024/02/08 02:52:58;;;;;;;23.02;6.80;;;1.80;99.90;;;;;;4939025;29;20020;-76
2024/02/08 02:55:23;;;;;;;20.90;6.30;;;1.80;99.90;;;;;;4956021;28;20046;-76
2024/02/08 02:57:49;;;;;;;30.30;6.88;;;1.80;99.90;;;;;;4955444;29;20064;-76
2024/02/08 03:00:21;;;;;;;16.33;5.93;;;1.80;99.90;;;;;;4955962;29;20453;-76
2024/02/08 03:02:51;;;;;;;20.33;5.45;;;1.80;99.90;;;;;;4938781;29;20019;-76
2024/02/08 03:05:18;;;;;;;19.13;5.70;;;1.80;99.90;;;;;;4954071;28;20479;-76
2024/02/08 03:07:50;;;;;;;16.50;5.90;;;1.80;99.90;;;;;;4956038;28;20062;-77
2024/02/08 03:10:21;;;;;;;21.35;6.65;;;1.80;99.90;;;;;;4937170;29;20060;-77
2024/02/08 03:12:51;;;;;;;19.90;6.63;;;1.80;99.90;;;;;;4952564;28;20062;-76
2024/02/08 03:15:20;;;;;;;24.27;6.35;;;1.80;99.90;;;;;;4955633;28;20028;-77
2024/02/08 03:17:46;;;;;;;21.30;6.45;;;1.80;99.90;;;;;;4938122;29;20031;-76
2024/02/08 03:20:17;;;;;;;18.65;6.22;;;1.80;99.90;;;;;;4955478;28;20038;-77
2024/02/08 03:22:48;;;;;;;22.50;6.70;;;1.80;99.90;;;;;;4955547;28;20038;-76
2024/02/08 03:25:16;;;;;;;20.67;6.13;;;1.80;99.90;;;;;;4954739;28;20042;-76
2024/02/08 03:27:45;;;;;;;30.85;7.07;;;1.80;99.90;;;;;;4938299;29;20063;-76
2024/02/08 03:30:19;;;;;;;15.77;6.13;;;1.80;99.90;;;;;;4954626;28;20084;-76
2024/02/08 03:32:46;;;;;;;22.63;7.10;;;1.80;99.90;;;;;;4955028;28;20019;-76
2024/02/08 03:35:13;;;;;;;23.13;7.13;;;1.80;99.90;;;;;;4938279;29;20535;-76
2024/02/08 03:37:39;;;;;;;25.75;6.80;;;1.80;99.90;;;;;;4937973;28;20092;-76
2024/02/08 03:40:05;;;;;;;22.38;6.95;;;1.80;99.90;;;;;;4937713;29;20055;-76
2024/02/08 03:42:30;;;;;;;28.40;7.57;;;1.80;99.90;;;;;;4953586;28;20019;-76
2024/02/08 03:45:00;;;;;;;17.50;6.07;;;1.80;99.90;;;;;;4937460;29;20043;-76
2024/02/08 03:47:26;;;;;;;20.20;6.50;;;1.70;99.90;;;;;;4938137;29;20052;-76
2024/02/08 03:49:52;;;;;;;18.17;6.88;;;1.80;99.90;;;;;;4954802;28;20023;-76
2024/02/08 03:52:20;;;;;;;26.25;7.05;;;1.80;99.90;;;;;;4937540;28;20030;-77
2024/02/08 03:54:46;;;;;;;22.15;7.55;;;1.80;99.90;;;;;;4954697;28;20496;-76
2024/02/08 03:57:14;;;;;;;27.60;6.65;;;1.80;99.90;;;;;;4954948;28;20095;-77
2024/02/08 03:59:42;;;;;;;18.42;6.50;;;1.80;99.90;;;;;;4937425;29;20114;-76
2024/02/08 04:02:09;;;;;;;21.27;7.03;;;1.80;99.90;;;;;;4953007;28;20462;-76
2024/02/08 04:04:54;;;;;;;26.38;7.07;;;1.80;99.90;;;;;;4955082;28;20055;-76
2024/02/08 04:07:34;;;;;;;16.95;6.68;;;1.80;99.90;;;;;;4937312;29;20032;-77
2024/02/08 04:10:11;;;;;;;24.17;6.25;;;1.70;99.90;;;;;;4954483;29;20055;-77
2024/02/08 04:53:56;;;;;;;20.35;6.97;;;1.70;99.90;;;;;;4954244;28;20037;-79
2024/02/08 04:56:22;;;;;;;21.25;7.03;;;1.70;99.90;;;;;;4954194;28;20023;-78
2024/02/08 04:58:48;;;;;;;24.23;7.25;;;1.60;99.90;;;;;;4954675;28;20047;-78
2024/02/08 05:01:14;;;;;;;18.35;7.72;;;1.60;99.90;;;;;;4933427;29;20412;-79
2024/02/08 05:03:44;;;;;;;29.10;8.50;;;1.60;99.90;;;;;;4936384;29;20105;-78
2024/02/08 05:06:11;;;;;;;18.42;8.48;;;1.60;99.90;;;;;;4953151;29;20055;-78
2024/02/08 05:08:41;;;;;;;19.65;8.00;;;1.50;99.90;;;;;;4936720;29;20055;-80
2024/02/08 05:11:10;;;;;;;18.98;7.50;;;1.60;99.90;;;;;;4936448;28;20565;-78
2024/02/08 05:13:39;;;;;;;20.17;7.97;;;1.50;99.90;;;;;;4954248;28;20024;-78
2024/02/08 05:16:06;;;;;;;23.52;7.68;;;1.50;99.90;;;;;;4934780;29;20031;-78
2024/02/08 05:18:32;;;;;;;23.90;6.85;;;1.50;99.90;;;;;;4950472;29;20594;-78
2024/02/08 05:20:57;;;;;;;21.73;6.97;;;1.60;99.90;;;;;;4948965;28;20103;-78
2024/02/08 05:23:27;;;;;;;29.73;6.63;;;1.50;99.90;;;;;;4950113;28;20627;-80
2024/02/08 05:25:52;;;;;;;21.63;7.03;;;1.50;99.90;;;;;;4953712;28;20035;-78
2024/02/08 05:28:18;;;;;;;26.00;7.00;;;1.60;99.90;;;;;;4953117;29;20023;-78
2024/02/08 05:30:45;;;;;;;18.23;6.25;;;1.60;99.90;;;;;;4935192;29;20393;-79
2024/02/08 05:33:11;;;;;;;20.77;6.63;;;1.60;99.90;;;;;;4937512;29;20035;-79
2024/02/08 05:35:39;;;;;;;22.70;7.03;;;1.60;99.90;;;;;;4957085;28;20020;-78
2024/02/08 05:38:05;;;;;;;23.05;6.65;;;1.60;99.90;;;;;;4938449;29;20043;-79
2024/02/08 05:40:31;;;;;;;19.70;6.32;;;1.60;99.90;;;;;;4937701;29;20105;-79
2024/02/08 05:42:58;;;;;;;24.05;6.43;;;1.60;99.90;;;;;;4954332;28;20032;-79
2024/02/08 05:45:30;;;;;;;15.70;6.55;;;1.60;99.90;;;;;;4938210;29;20039;-79
2024/02/08 05:48:05;;;;;;;16.80;6.35;;;1.70;99.90;;;;;;4938226;29;20131;-79
2024/02/08 05:50:31;;;;;;;21.33;5.88;;;1.70;99.90;;;;;;4954097;28;20039;-79
2024/02/08 05:52:57;;;;;;;20.75;6.15;;;1.70;99.90;;;;;;4937438;29;20095;-78
2024/02/08 05:55:26;;;;;;;20.35;6.00;;;1.70;99.90;;;;;;4956604;28;20027;-79
2024/02/08 05:57:53;;;;;;;21.65;5.82;;;1.70;99.90;;;;;;4938021;29;20028;-79
2024/02/08 06:00:45;;;;;;;16.45;5.72;;;1.70;99.90;;;;;;4957127;28;20027;-78
2024/02/08 06:03:17;;;;;;;25.95;6.53;;;1.70;99.90;;;;;;4952448;28;20098;-79
2024/02/08 06:05:49;;;;;;;24.02;6.00;;;1.70;99.90;;;;;;4955675;28;20543;-78
2024/02/08 06:08:25;;;;;;;24.08;6.47;;;1.70;99.90;;;;;;4956911;29;20059;-79
2024/02/08 06:10:52;;;;;;;17.48;5.85;;;1.80;99.90;;;;;;4938213;29;20051;-79
2024/02/08 06:13:22;;;;;;;18.23;6.03;;;1.80;99.90;;;;;;4956068;28;20054;-80
2024/02/08 06:15:50;;;;;;;22.55;6.28;;;1.70;99.90;;;;;;4956621;29;20026;-79
2024/02/08 06:18:30;;;;;;;16.27;6.80;;;1.80;99.90;;;;;;4933959;28;20035;-78
2024/02/08 06:20:59;;;;;;;20.60;6.53;;;1.80;99.90;;;;;;4935381;29;20031;-80
2024/02/08 06:23:34;;;;;;;23.33;6.68;;;1.80;99.90;;;;;;4952037;28;20412;-80
2024/02/08 06:28:52;;;;;;;18.13;7.18;;;1.80;99.90;;;;;;4956782;29;20091;-79
2024/02/08 06:31:19;;;;;;;18.98;7.00;;;1.80;99.90;;;;;;4955602;28;20022;-78
2024/02/08 06:36:34;;;;;;;27.40;7.65;;;1.80;99.90;;;;;;4957081;29;20089;-78
2024/02/08 06:39:20;;;;;;;28.10;8.32;;;1.80;99.90;;;;;;4938980;29;20050;-78
2024/02/08 06:41:53;;;;;;;25.83;7.60;;;1.80;99.90;;;;;;4955718;28;20034;-79
2024/02/08 06:47:29;;;;;;;23.85;8.88;;;1.80;99.90;;;;;;4954091;28;20101;-80
2024/02/08 07:41:56;;;;;;;26.23;8.13;;;2.00;99.90;;;;;;4953140;28;20126;-79
2024/02/08 07:44:30;;;;;;;25.67;8.48;;;2.10;99.90;;;;;;4954115;28;20086;-79
2024/02/08 07:46:56;;;;;;;24.00;7.70;;;2.10;99.90;;;;;;4937742;28;20035;-79
2024/02/08 07:49:41;;;;;;;28.25;9.48;;;2.10;99.90;;;;;;4937847;28;20070;-79
2024/02/08 07:52:14;;;;;;;22.05;7.70;;;2.20;99.90;;;;;;4937991;29;20025;-79
2024/02/08 07:54:42;;;;;;;22.80;8.00;;;2.20;99.90;;;;;;4954309;28;20469;-79
2024/02/08 07:57:11;;;;;;;24.77;9.40;;;2.20;99.90;;;;;;4936491;28;20788;-80
2024/02/08 07:59:42;;;;;;;20.88;9.05;;;2.30;99.90;;;;;;4935517;29;20039;-79
2024/02/08 08:02:12;;;;;;;26.50;9.25;;;2.30;99.90;;;;;;4951930;28;20031;-80
2024/02/08 08:04:52;;;;;;;29.13;9.55;;;2.30;99.90;;;;;;4937213;28;20042;-80
2024/02/08 08:07:23;;;;;;;28.60;9.68;;;2.30;99.90;;;;;;4937501;29;20027;-79
2024/02/08 08:10:08;;;;;;;28.58;9.00;;;2.30;99.90;;;;;;4937355;28;20051;-80
2024/02/08 08:12:37;;;;;;;30.70;9.98;;;2.30;99.90;;;;;;4937250;29;20378;-79
2024/02/08 08:19:55;;;;;;;27.65;9.20;;;2.40;99.90;;;;;;4952828;28;20036;-80
2024/02/08 08:27:53;;;;;;;20.95;9.40;;;2.50;99.90;;;;;;4952373;29;20034;-79
2024/02/08 08:30:28;;;;;;;23.88;9.30;;;2.50;99.90;;;;;;4953324;28;20477;-78
2024/02/08 08:40:48;;;;;;;26.98;9.85;;;2.50;99.90;;;;;;4950734;28;20492;-80
2024/02/08 08:43:24;;;;;;;28.55;9.27;;;2.50;99.90;;;;;;4936247;29;20024;-78
2024/02/08 08:45:59;;;;;;;22.15;9.88;;;2.60;99.90;;;;;;4953500;28;20042;-79
2024/02/08 08:48:30;;;;;;;34.97;10.18;;;2.60;99.90;;;;;;4936078;28;20028;-78
2024/02/08 08:51:00;;;;;;;29.42;10.32;;;2.60;99.90;;;;;;4954223;29;20027;-80
2024/02/08 08:53:41;;;;;;;26.38;10.75;;;2.60;99.90;;;;;;4934041;29;20031;-80
2024/02/08 08:56:10;;;;;;;24.10;10.23;;;2.60;99.90;;;;;;4937282;29;20091;-79
2024/02/08 08:58:39;;;;;;;30.63;10.68;;;2.60;99.90;;;;;;4952448;28;20027;-79
2024/02/08 09:01:15;;;;;;;27.77;11.13;;;2.60;99.90;;;;;;4952305;29;20080;-79
2024/02/08 09:03:55;;;;;;;34.75;11.38;;;2.70;99.90;;;;;;4953122;28;20015;-79
2024/02/08 09:06:27;;;;;;;35.20;12.35;;;2.70;99.90;;;;;;4956948;28;20027;-80
2024/02/08 09:08:55;;;;;;;32.47;11.35;;;2.70;99.90;;;;;;4957074;28;20668;-80
2024/02/08 09:11:27;;;;;;;24.88;10.90;;;2.80;99.90;;;;;;4940874;28;20027;-80
2024/02/08 09:13:53;;;;;;;33.42;10.38;;;2.80;99.90;;;;;;4938605;29;20031;-79
2024/02/08 09:21:26;;;;;;;35.45;9.95;;;3.00;99.90;;;;;;4938327;29;20127;-80
2024/02/08 09:23:52;;;;;;;29.48;9.43;;;3.00;99.90;;;;;;4936585;29;20038;-79
2024/02/08 09:26:24;;;;;;;24.67;9.20;;;3.00;99.90;;;;;;4936695;29;20134;-79
2024/02/08 09:28:51;;;;;;;38.38;14.52;;;3.10;99.90;;;;;;4955407;29;20042;-78
2024/02/08 09:31:17;;;;;;;28.52;9.35;;;3.20;99.90;;;;;;4955200;29;20701;-79
2024/02/08 09:33:51;;;;;;;27.70;10.00;;;3.30;99.90;;;;;;4939894;29;20027;-77
2024/02/08 09:36:17;;;;;;;25.23;9.38;;;3.30;99.90;;;;;;4951768;28;20024;-80
2024/02/08 09:38:43;;;;;;;29.52;9.20;;;3.30;99.90;;;;;;4939959;28;20050;-79
2024/02/08 09:41:15;;;;;;;29.13;11.13;;;3.40;99.90;;;;;;4935503;28;20079;-80
2024/02/08 09:43:45;;;;;;;25.85;11.68;;;3.40;99.90;;;;;;4937016;28;20037;-80
2024/02/08 09:46:44;;;;;;;31.02;11.77;;;3.40;99.90;;;;;;4938289;29;20035;-80
2024/02/08 09:49:12;;;;;;;24.83;11.50;;;3.50;99.90;;;;;;4956226;28;20027;-80
2024/02/08 09:51:51;;;;;;;27.65;11.57;;;3.50;99.90;;;;;;4956293;28;20019;-80
2024/02/08 09:54:27;;;;;;;25.90;11.40;;;3.50;99.90;;;;;;4956655;28;20096;-80
2024/02/08 09:57:01;;;;;;;31.48;12.00;;;3.50;99.90;;;;;;4939619;28;20059;-79
2024/02/08 10:00:34;;;;;;;;;;;3.50;99.90;;;;;;4940389;28;20028;-80
2024/02/08 10:02:24;;;;;;;36.47;11.70;;;3.50;99.90;;;;;;4942378;28;19914;-79
2024/02/08 10:04:56;;;;;;;28.52;11.10;;;3.50;99.90;;;;;;4939449;28;20046;-80
2024/02/08 10:07:34;;;;;;;26.55;10.70;;;3.60;99.90;;;;;;4939725;28;20027;-80
2024/02/08 10:10:15;;;;;;;35.22;10.45;;;3.60;99.90;;;;;;4939160;29;20052;-79
2024/02/08 10:12:53;;;;;;;26.60;10.60;;;3.60;99.90;;;;;;4939539;29;20042;-79
2024/02/08 10:15:26;;;;;;;28.08;9.90;;;3.70;99.90;;;;;;4956780;28;20043;-78
2024/02/08 10:18:02;;;;;;;33.75;9.93;;;3.70;99.90;;;;;;4955861;28;20042;-80
2024/02/08 10:20:45;;;;;;;28.80;9.98;;;3.80;99.90;;;;;;4940000;29;20020;-79
2024/02/08 10:23:33;;;;;;;26.25;10.65;;;3.80;99.90;;;;;;4939498;28;20020;-78
2024/02/08 10:28:46;;;;;;;28.27;10.10;;;3.90;99.90;;;;;;4956520;28;20047;-78
2024/02/08 10:31:22;;;;;;;29.55;10.52;;;4.00;99.90;;;;;;4956267;28;20036;-79
2024/02/08 10:33:48;;;;;;;26.00;10.05;;;4.10;99.90;;;;;;4939468;29;20049;-78
2024/02/08 10:36:21;;;;;;;31.20;9.48;;;4.20;99.90;;;;;;4958110;28;20095;-79
2024/02/08 10:38:56;;;;;;;29.67;10.18;;;4.20;99.90;;;;;;4956247;28;20024;-78
2024/02/08 10:41:28;;;;;;;29.48;10.13;;;4.20;99.90;;;;;;4956144;28;20424;-80
2024/02/08 10:43:57;;;;;;;23.05;9.25;;;4.30;99.90;;;;;;4939746;29;20031;-78
2024/02/08 10:46:31;;;;;;;24.33;10.05;;;4.30;99.90;;;;;;4938413;29;20039;-79
2024/02/08 10:49:01;;;;;;;25.95;10.60;;;4.30;99.90;;;;;;4955895;28;20090;-79
2024/02/08 10:51:31;;;;;;;29.15;9.77;;;4.30;99.90;;;;;;4956052;28;20019;-78
2024/02/08 10:54:08;;;;;;;26.55;9.60;;;4.40;99.90;;;;;;4938342;28;20028;-79
2024/02/08 10:56:44;;;;;;;29.17;9.50;;;4.40;99.90;;;;;;4956063;28;20019;-78
2024/02/08 10:59:14;;;;;;;32.30;10.30;;;4.60;99.90;;;;;;4938395;29;20023;-78
2024/02/08 11:04:18;;;;;;;24.65;9.30;;;4.70;99.90;;;;;;4955786;29;20023;-78
2024/02/08 11:07:33;;;;;;;27.38;10.15;;;4.70;99.90;;;;;;4954314;28;20031;-77
2024/02/08 11:09:59;;;;;;;28.25;8.38;;;4.70;99.90;;;;;;4955394;28;20071;-79
2024/02/08 11:12:29;;;;;;;32.08;9.00;;;4.80;99.90;;;;;;4955693;29;20028;-78
2024/02/08 11:15:14;;;;;;;25.40;8.07;;;4.80;99.90;;;;;;4938128;29;20023;-78
2024/02/08 11:17:52;;;;;;;23.67;8.25;;;4.90;99.90;;;;;;4955263;28;20121;-79
2024/02/08 11:20:33;;;;;;;39.60;8.60;;;5.00;99.90;;;;;;4955557;28;20110;-78
2024/02/08 11:23:10;;;;;;;33.00;8.65;;;5.00;99.90;;;;;;4955254;28;20020;-79
2024/02/08 11:25:38;;;;;;;23.83;8.75;;;5.00;99.90;;;;;;4955048;28;20032;-79
2024/02/08 11:28:13;;;;;;;20.05;7.90;;;5.10;99.90;;;;;;4937705;29;20031;-78
2024/02/08 11:30:40;;;;;;;25.70;8.20;;;5.10;99.90;;;;;;4937776;28;20027;-79
2024/02/08 11:33:12;;;;;;;22.80;8.40;;;5.10;99.90;;;;;;4955071;28;20028;-79
2024/02/08 11:35:54;;;;;;;25.70;8.90;;;5.10;99.90;;;;;;4937695;29;20078;-78
2024/02/08 11:38:34;;;;;;;27.38;8.45;;;5.10;99.90;;;;;;4938163;29;20095;-79
2024/02/08 11:41:10;;;;;;;27.75;8.85;;;5.20;99.90;;;;;;4954690;28;20027;-78
2024/02/08 11:43:47;;;;;;;27.23;8.73;;;5.20;99.90;;;;;;4937255;28;20035;-79
2024/02/08 11:46:21;;;;;;;22.08;8.75;;;5.20;99.90;;;;;;4954558;28;20032;-80
2024/02/08 11:48:48;;;;;;;30.45;8.48;;;5.20;99.90;;;;;;4937309;29;20035;-79
2024/02/08 11:51:16;;;;;;;24.77;7.80;;;5.20;99.90;;;;;;4954600;28;20027;-79
2024/02/08 11:53:46;;;;;;;27.08;9.10;;;5.20;99.90;;;;;;4954655;28;20461;-79
2024/02/08 11:56:20;;;;;;;18.73;7.72;;;5.20;99.90;;;;;;4954389;29;20027;-79
2024/02/08 11:58:48;;;;;;;23.17;8.50;;;5.10;99.90;;;;;;4955348;28;20035;-78
2024/02/08 12:01:14;;;;;;;22.75;8.35;;;5.10;99.90;;;;;;4936938;29;20020;-78
2024/02/08 12:03:44;;;;;;;23.00;8.15;;;5.20;99.90;;;;;;4936960;28;20032;-79
2024/02/08 12:06:18;;;;;;;28.08;8.73;;;5.20;99.90;;;;;;4953661;29;20039;-78
2024/02/08 12:08:54;;;;;;;;;;;5.20;99.90;;;;;;4937295;28;20066;-78
2024/02/08 12:11:22;;;;;;;27.05;8.32;;;5.20;99.90;;;;;;4937363;28;19915;-79
2024/02/08 12:13:48;;;;;;;25.45;8.18;;;5.20;99.90;;;;;;4954269;28;20023;-79
2024/02/08 12:16:14;;;;;;;26.40;8.55;;;5.20;99.90;;;;;;4936715;29;20047;-77
2024/02/08 12:18:41;;;;;;;27.15;8.35;;;5.20;99.90;;;;;;4954691;29;20032;-77
2024/02/08 12:21:08;;;;;;;27.40;8.68;;;5.20;99.90;;;;;;4954556;28;20024;-79
2024/02/08 12:23:35;;;;;;;21.95;8.82;;;5.10;99.90;;;;;;4954082;28;20118;-78
2024/02/08 12:26:10;;;;;;;24.80;8.50;;;5.20;99.90;;;;;;4953835;28;20036;-78
2024/02/08 12:28:42;;;;;;;26.60;8.27;;;5.10;99.90;;;;;;4936992;29;20107;-79
2024/02/08 12:31:16;;;;;;;22.77;8.77;;;5.20;99.90;;;;;;4936610;29;20024;-78
2024/02/08 12:33:45;;;;;;;27.67;9.23;;;5.20;99.90;;;;;;4954382;28;20465;-78
2024/02/08 12:36:14;;;;;;;28.45;9.30;;;5.20;99.90;;;;;;4953666;28;20034;-78
2024/02/08 12:38:42;;;;;;;22.70;8.57;;;5.30;99.90;;;;;;4936706;29;20046;-78
2024/02/08 12:41:09;;;;;;;25.00;8.35;;;5.10;99.90;;;;;;4956764;28;20039;-78
2024/02/08 12:43:37;;;;;;;22.85;7.80;;;5.20;99.90;;;;;;4940500;29;20047;-78
2024/02/08 12:46:06;;;;;;;30.13;7.28;;;5.30;99.90;;;;;;4956466;28;20035;-78
2024/02/08 12:48:33;;;;;;;26.90;7.47;;;5.30;99.90;;;;;;4940680;29;20042;-78
2024/02/08 12:51:03;;;;;;;23.40;6.25;;;5.20;99.90;;;;;;4940041;28;20106;-78
2024/02/08 12:53:30;;;;;;;24.67;6.40;;;5.20;99.90;;;;;;4958068;28;20024;-78
2024/02/08 12:56:09;;;;;;;29.08;6.78;;;5.10;99.90;;;;;;4957312;28;20098;-78
2024/02/08 12:58:36;;;;;;;20.80;5.97;;;5.10;99.90;;;;;;4940340;28;20031;-78
2024/02/08 13:01:05;;;;;;;25.67;6.50;;;5.10;99.90;;;;;;4939709;29;20039;-77
2024/02/08 13:03:36;;;;;;;23.90;6.72;;;5.10;99.90;;;;;;4956126;28;20489;-78
2024/02/08 13:06:03;;;;;;;28.73;6.50;;;5.10;99.90;;;;;;4953946;28;20050;-78
2024/02/08 13:08:33;;;;;;;31.05;7.18;;;5.20;99.90;;;;;;4939348;29;20035;-77
2024/02/08 13:11:00;;;;;;;23.60;7.47;;;5.10;99.90;;;;;;4955235;28;20031;-78
2024/02/08 13:13:26;;;;;;;23.38;7.05;;;5.10;99.90;;;;;;4956969;28;20030;-78
2024/02/08 13:16:04;;;;;;;22.45;7.40;;;5.10;99.90;;;;;;4940689;29;20020;-80
2024/02/08 13:18:30;;;;;;;25.23;8.10;;;5.10;99.90;;;;;;4939945;29;20033;-78
2024/02/08 13:21:00;;;;;;;24.55;8.02;;;5.10;99.90;;;;;;4957285;28;20055;-78
2024/02/08 13:23:29;;;;;;;25.67;8.25;;;5.00;99.90;;;;;;4940226;29;20039;-78
2024/02/08 13:25:54;;;;;;;30.48;7.72;;;5.00;99.90;;;;;;4939837;29;20709;-78
2024/02/08 13:28:23;;;;;;;20.95;7.00;;;4.90;99.90;;;;;;4940594;29;20019;-79
2024/02/08 13:30:52;;;;;;;27.05;7.57;;;5.00;99.90;;;;;;4957439;28;20030;-78
2024/02/08 13:33:18;;;;;;;23.10;7.15;;;4.90;99.90;;;;;;4935242;29;20043;-78
2024/02/08 13:35:43;;;;;;;27.92;6.40;;;4.80;99.90;;;;;;4940691;29;20020;-77
2024/02/08 13:38:12;;;;;;;20.70;5.50;;;4.80;99.90;;;;;;4940261;28;20580;-78
2024/02/08 13:40:42;;;;;;;25.27;6.53;;;4.80;99.90;;;;;;4938027;28;20031;-77
2024/02/08 13:43:10;;;;;;;25.15;5.20;;;4.80;99.90;;;;;;4955730;28;20019;-77
2024/02/08 13:45:37;;;;;;;25.00;5.90;;;4.80;99.90;;;;;;4951496;28;20032;-78
2024/02/08 13:48:05;;;;;;;24.10;5.10;;;4.80;99.90;;;;;;4934341;28;20036;-79
2024/02/08 13:50:30;;;;;;;23.13;6.03;;;4.80;99.90;;;;;;4939312;29;20023;-78
2024/02/08 13:52:57;;;;;;;24.58;6.57;;;4.80;99.90;;;;;;4935008;29;20032;-78
2024/02/08 13:55:25;;;;;;;23.77;6.22;;;4.80;99.90;;;;;;4938745;29;20481;-77
2024/02/08 13:57:51;;;;;;;27.63;7.90;;;4.80;99.90;;;;;;4951853;28;20030;-79
2024/02/08 14:00:26;;;;;;;25.83;6.68;;;4.70;99.90;;;;;;4935264;29;20035;-78
2024/02/08 14:02:53;;;;;;;27.23;7.82;;;4.70;99.90;;;;;;4952431;29;20019;-79
2024/02/08 14:05:23;;;;;;;26.70;7.13;;;4.70;99.90;;;;;;4945592;29;20201;-77
2024/02/08 14:07:52;;;;;;;39.08;6.85;;;4.70;99.90;;;;;;4955692;28;20043;-77
2024/02/08 14:10:32;;;;;;;26.60;6.93;;;4.70;99.90;;;;;;4938963;29;20056;-78
2024/02/08 14:13:01;;;;;;;18.83;6.30;;;4.70;99.90;;;;;;4936726;29;20059;-77
2024/02/08 14:15:30;;;;;;;23.42;6.88;;;4.70;99.90;;;;;;4935758;29;20051;-79
2024/02/08 14:17:57;;;;;;;20.90;6.90;;;4.70;99.90;;;;;;4937798;28;20055;-77
2024/02/08 14:23:31;;;;;;;25.35;6.72;;;4.70;99.90;;;;;;4943127;28;20064;-77
2024/02/08 14:26:31;;;;;;;24.95;6.78;;;4.70;99.90;;;;;;4953309;29;20111;-78
2024/02/08 14:28:55;;;;;;;25.33;6.50;;;4.70;99.90;;;;;;4955501;29;20091;-78
2024/02/08 14:31:21;;;;;;;26.35;7.20;;;4.70;99.90;;;;;;4938725;29;20107;-77
2024/02/08 14:33:46;;;;;;;22.40;7.13;;;4.60;99.90;;;;;;4939508;29;20062;-78
2024/02/08 14:36:17;;;;;;;22.48;6.80;;;4.70;99.90;;;;;;4937548;29;20043;-79
2024/02/08 14:38:48;;;;;;;31.05;6.90;;;4.70;99.90;;;;;;4935783;28;20024;-78
2024/02/08 14:41:25;;;;;;;22.65;5.85;;;4.60;99.90;;;;;;4954486;28;20070;-78
2024/02/08 14:43:54;;;;;;;22.33;5.90;;;4.60;99.90;;;;;;4953152;28;20023;-79
2024/02/08 14:46:21;;;;;;;19.02;5.97;;;4.70;99.90;;;;;;4953869;28;20031;-78
2024/02/08 14:48:51;;;;;;;18.27;6.13;;;4.70;99.90;;;;;;4937411;29;20051;-78
2024/02/08 14:53:49;;;;;;;28.98;6.53;;;4.70;99.90;;;;;;4953696;28;20027;-77
2024/02/08 14:56:18;;;;;;;24.20;6.32;;;4.70;99.90;;;;;;4951832;29;20024;-77
2024/02/08 14:58:57;;;;;;;29.52;7.43;;;4.70;99.90;;;;;;4953820;29;20012;-78
2024/02/08 15:01:38;;;;;;;18.33;6.15;;;4.70;99.90;;;;;;4949824;28;20032;-78
2024/02/08 15:04:15;;;;;;;23.00;6.35;;;4.70;99.90;;;;;;4936522;29;20075;-77
2024/02/08 15:07:06;;;;;;;21.10;4.07;;;4.60;99.90;;;;;;4953846;28;20031;-78
2024/02/08 15:12:24;;;;;;;18.45;7.18;;;4.60;99.90;;;;;;4953181;29;20046;-78
2024/02/08 15:14:54;;;;;;;18.02;4.45;;;4.60;99.90;;;;;;4937477;29;20032;-77
2024/02/08 15:17:23;;;;;;;17.33;4.82;;;4.60;99.90;;;;;;4938206;29;20031;-80
2024/02/08 15:19:52;;;;;;;26.02;5.68;;;4.60;99.90;;;;;;4952194;28;20027;-78